Time;durP1;ratioP1;P1;durP2;ratioP2;P2;SDS_P1;SDS_P2;PMS_P1;PMS_P2;Temp;Humidity;BMP_temperature;BMP_pressure;BME280_temperature;BME280_humidity;BME280_pressure;Samples;Min_cycle;Max_cycle;Signal;HPM_P1;HPM_P2
2021/12/15 05:41:52;;;;;;;17.87;9.73;;;;;;;0.70;97.38;100744.31;1729622;81;21080;-38
2021/12/15 05:44:20;;;;;;;17.85;9.13;;;;;;;0.70;97.84;100748.58;1708268;81;21577;-36
2021/12/15 05:46:46;;;;;;;15.55;7.55;;;;;;;0.71;98.07;100752.92;1719872;81;21061;-43
2021/12/15 05:49:13;;;;;;;15.70;10.03;;;;;;;0.72;98.27;100750.81;1717114;81;21002;-43
2021/12/15 05:51:40;;;;;;;11.25;6.42;;;;;;;0.72;98.63;100750.41;1712997;81;21067;-45
2021/12/15 05:54:07;;;;;;;16.37;10.60;;;;;;;0.74;98.60;100752.63;1704666;82;21025;-37
2021/12/15 05:56:35;;;;;;;7.00;4.83;;;;;;;0.74;98.53;100746.19;1704650;81;21571;-37
2021/12/15 05:59:02;;;;;;;8.28;5.55;;;;;;;0.75;98.39;100751.84;1702746;81;21005;-36
2021/12/15 06:01:30;;;;;;;8.18;6.03;;;;;;;0.74;98.31;100753.92;1714366;80;21083;-36
2021/12/15 06:04:00;;;;;;;12.25;5.62;;;;;;;0.72;98.62;100750.81;1710509;82;21612;-44
2021/12/15 06:06:30;;;;;;;7.90;4.30;;;;;;;0.73;98.72;100754.73;1710707;81;21148;-37
2021/12/15 06:08:57;;;;;;;8.75;5.08;;;;;;;0.77;98.82;100753.20;1709251;81;21036;-44
2021/12/15 06:11:25;;;;;;;7.25;4.10;;;;;;;0.74;98.89;100752.63;1709466;81;21029;-37
2021/12/15 06:14:55;;;;;;;8.95;4.72;;;;;;;0.73;99.17;100755.15;1709879;80;21009;-44
2021/12/15 06:39:34;;;;;;;18.35;7.87;;;;;;;0.73;100.00;100756.03;1708079;81;21048;-36
2021/12/15 06:47:17;;;;;;;6.97;3.72;;;;;;;0.68;100.00;100751.47;1713481;81;21091;-43
2021/12/15 06:58:10;;;;;;;;;;;;;;;0.60;100.00;100744.69;1700021;82;21131;-44
2021/12/15 07:04:49;;;;;;;;;;;;;;;0.63;100.00;100745.22;1700622;82;21657;-37
2021/12/15 07:08:41;;;;;;;5.08;3.05;;;;;;;0.65;100.00;100747.48;1694097;82;20108;-37
2021/12/15 07:12:51;;;;;;;6.58;3.62;;;;;;;0.64;100.00;100754.70;1693775;81;21165;-37
2021/12/15 07:32:55;;;;;;;5.25;3.00;;;;;;;0.62;100.00;100770.50;1705797;81;21069;-36
2021/12/15 07:47:41;;;;;;;;;;;;;;;0.68;99.35;100774.65;1697905;82;21653;-45
2021/12/15 07:51:20;;;;;;;4.30;3.27;;;;;;;0.75;98.97;100783.13;1700882;81;20463;-45
2021/12/15 07:58:13;;;;;;;5.92;3.08;;;;;;;0.92;97.83;100789.08;1695070;80;21631;-37
2021/12/15 08:02:12;;;;;;;6.85;2.90;;;;;;;0.98;96.91;100790.65;1718227;80;21694;-37
2021/12/15 08:05:28;;;;;;;6.00;3.72;;;;;;;0.99;95.79;100788.58;1722955;79;21076;-45
2021/12/15 08:25:59;;;;;;;9.88;4.67;;;;;;;0.84;90.92;100781.41;1702283;81;21168;-45
2021/12/15 08:37:29;;;;;;;7.80;3.42;;;;;;;0.99;94.77;100774.00;1709121;81;21063;-37
2021/12/15 08:40:51;;;;;;;6.60;3.45;;;;;;;1.09;95.08;100776.97;1689493;81;21128;-37
2021/12/15 08:44:55;;;;;;;4.10;2.62;;;;;;;1.10;94.53;100778.32;1699862;81;21109;-38
2021/12/15 08:48:35;;;;;;;4.85;3.25;;;;;;;1.11;94.37;100777.54;1709291;81;21612;-36
2021/12/15 08:52:05;;;;;;;5.15;3.47;;;;;;;1.10;94.48;100769.70;1707544;82;21052;-44
2021/12/15 09:11:10;;;;;;;5.87;2.83;;;;;;;1.04;91.19;100750.98;1714207;81;21107;-45
2021/12/15 09:19:40;;;;;;;10.32;4.05;;;;;;;1.00;92.09;100753.84;1697569;81;21064;-37
2021/12/15 09:35:28;;;;;;;4.42;2.77;;;;;;;1.09;91.63;100758.94;1709224;81;21817;-45
2021/12/15 09:42:45;;;;;;;5.05;2.87;;;;;;;1.16;89.37;100745.50;1704082;82;21025;-44
2021/12/15 10:19:51;;;;;;;4.10;2.20;;;;;;;0.98;91.70;100719.38;1715773;80;20992;-36
2021/12/15 10:27:50;;;;;;;1.62;1.42;;;;;;;0.81;94.09;100729.32;1719591;81;21137;-44
2021/12/15 10:36:02;;;;;;;5.87;1.65;;;;;;;0.83;95.96;100728.13;1714712;81;21651;-36
2021/12/15 10:40:00;;;;;;;4.37;2.25;;;;;;;0.83;95.16;100716.53;1720708;80;21093;-37
2021/12/15 10:43:03;;;;;;;3.95;2.12;;;;;;;0.76;94.78;100711.52;1727970;80;21031;-37
2021/12/15 10:46:21;;;;;;;4.12;2.62;;;;;;;0.72;94.40;100713.47;1728789;81;21111;-39
2021/12/15 10:49:15;;;;;;;2.92;2.08;;;;;;;0.70;94.69;100712.11;1731750;81;21026;-37
2021/12/15 10:52:44;;;;;;;2.92;1.87;;;;;;;0.72;94.95;100717.33;1723646;81;21090;-44
2021/12/15 10:55:42;;;;;;;5.72;2.95;;;;;;;0.75;95.16;100722.61;1727380;81;21089;-44
2021/12/15 11:15:43;;;;;;;3.65;1.80;;;;;;;0.87;95.31;100701.67;1692227;82;21576;-36
2021/12/15 11:19:13;;;;;;;4.40;2.08;;;;;;;0.88;95.12;100711.19;1692331;83;21000;-45
2021/12/15 11:26:24;;;;;;;2.08;1.45;;;;;;;0.87;95.77;100709.03;1705408;81;21151;-43
2021/12/15 11:36:50;;;;;;;1.92;1.65;;;;;;;0.95;96.67;100699.05;1707894;82;21058;-44
2021/12/15 11:44:20;;;;;;;2.15;1.52;;;;;;;0.95;95.97;100699.93;1670409;82;21033;-45
2021/12/15 11:52:11;;;;;;;2.77;1.62;;;;;;;0.94;96.36;100708.48;1679588;81;21710;-38
2021/12/15 11:55:34;;;;;;;4.90;1.50;;;;;;;0.98;96.61;100714.63;1684685;82;21536;-44
2021/12/15 12:02:24;;;;;;;5.58;2.00;;;;;;;1.05;96.71;100702.52;1685402;82;21528;-38
2021/12/15 12:24:52;;;;;;;3.95;2.02;;;;;;;1.04;97.28;100717.11;1670169;83;21101;-35
2021/12/15 12:28:25;;;;;;;2.17;1.60;;;;;;;1.11;97.12;100716.97;1633573;85;21635;-43
2021/12/15 12:34:46;;;;;;;4.17;1.57;;;;;;;1.12;96.70;100720.42;1622445;85;21083;-43
2021/12/15 12:38:20;;;;;;;3.98;2.20;;;;;;;1.11;97.15;100713.52;1624990;86;21082;-45
2021/12/15 13:01:42;;;;;;;3.50;2.72;;;;;;;1.10;98.01;100727.19;1648433;85;21053;-44
2021/12/15 13:09:00;;;;;;;7.75;2.70;;;;;;;1.08;98.52;100735.27;1669038;84;21099;-43
2021/12/15 13:11:35;;;;;;;4.75;2.67;;;;;;;1.09;98.51;100740.89;1675578;84;21662;-43
2021/12/15 13:14:22;;;;;;;3.20;2.55;;;;;;;1.11;98.22;100749.59;1622261;86;21074;-37
2021/12/15 13:16:55;;;;;;;6.40;3.30;;;;;;;1.11;97.90;100742.74;1639534;85;21111;-36
2021/12/15 13:19:34;;;;;;;4.85;2.87;;;;;;;1.14;97.31;100736.83;1657561;84;21033;-36
2021/12/15 13:31:08;;;;;;;4.62;3.10;;;;;;;1.15;97.22;100751.47;1652980;85;21692;-37
2021/12/15 13:33:42;;;;;;;5.40;3.58;;;;;;;1.16;97.23;100755.44;1642938;85;21060;-38
2021/12/15 13:36:21;;;;;;;4.78;3.37;;;;;;;1.17;97.36;100749.88;1649972;85;21108;-45
2021/12/15 13:39:04;;;;;;;4.80;3.15;;;;;;;1.16;97.56;100750.28;1658457;85;22053;-45
2021/12/15 13:42:03;;;;;;;8.70;4.62;;;;;;;1.17;97.70;100752.04;1630604;85;21069;-45
2021/12/15 13:44:48;;;;;;;8.95;4.65;;;;;;;1.19;98.00;100754.27;1644787;85;21028;-38
2021/12/15 13:47:21;;;;;;;7.47;4.70;;;;;;;1.20;98.15;100752.16;1685351;83;21031;-38
2021/12/15 13:49:53;;;;;;;6.62;4.75;;;;;;;1.19;98.14;100752.98;1691503;82;21016;-37
2021/12/15 13:52:36;;;;;;;8.50;5.73;;;;;;;1.18;98.29;100756.38;1699971;82;21012;-37
2021/12/15 13:55:26;;;;;;;;;;;;;;;1.15;98.48;100757.51;1678672;83;21570;-37
2021/12/15 13:58:04;;;;;;;10.93;5.60;;;;;;;1.17;98.97;100766.22;1690823;82;20522;-37
2021/12/15 14:00:49;;;;;;;7.65;5.15;;;;;;;1.18;99.18;100763.23;1681031;83;21122;-45
2021/12/15 14:03:43;;;;;;;11.40;5.70;;;;;;;1.18;99.31;100762.81;1689105;83;21560;-45
2021/12/15 14:06:18;;;;;;;6.97;4.60;;;;;;;1.22;99.38;100771.58;1640119;86;21662;-45
2021/12/15 14:08:56;;;;;;;7.83;5.17;;;;;;;1.24;99.23;100772.11;1644976;86;20995;-45
2021/12/15 14:11:29;;;;;;;6.78;4.58;;;;;;;1.25;98.91;100767.42;1657955;85;21080;-38
2021/12/15 14:14:09;;;;;;;7.62;3.98;;;;;;;1.27;98.57;100773.93;1654989;85;21594;-38
2021/12/15 14:16:45;;;;;;;7.25;4.90;;;;;;;1.26;98.41;100776.04;1644280;85;21035;-37
2021/12/15 14:19:19;;;;;;;10.32;5.33;;;;;;;1.27;98.34;100773.93;1637251;85;21107;-38
2021/12/15 14:21:48;;;;;;;6.92;4.45;;;;;;;1.28;98.24;100779.18;1620940;85;21056;-37
2021/12/15 14:24:17;;;;;;;12.75;5.75;;;;;;;1.31;98.10;100782.29;1646293;85;21039;-45
2021/12/15 14:26:46;;;;;;;6.97;4.37;;;;;;;1.32;98.06;100781.06;1636012;86;21087;-44
2021/12/15 14:29:18;;;;;;;9.40;5.08;;;;;;;1.30;97.81;100781.82;1641792;85;21588;-44
2021/12/15 14:31:45;;;;;;;6.70;4.90;;;;;;;1.31;98.01;100788.73;1630501;86;21052;-37
2021/12/15 14:34:16;;;;;;;8.93;5.28;;;;;;;1.34;98.25;100790.17;1654935;85;21112;-37
2021/12/15 14:36:51;;;;;;;9.50;5.37;;;;;;;1.37;98.33;100786.84;1659168;85;21134;-44
2021/12/15 14:39:24;;;;;;;9.93;5.60;;;;;;;1.37;98.22;100790.30;1657051;84;21063;-44
2021/12/15 14:42:01;;;;;;;11.83;5.65;;;;;;;1.36;98.19;100791.52;1705317;82;21038;-36
2021/12/15 14:44:32;;;;;;;10.90;5.35;;;;;;;1.33;98.35;100784.52;1700257;82;21064;-36
2021/12/15 14:47:03;;;;;;;14.35;8.70;;;;;;;1.31;98.48;100794.77;1708456;83;21084;-44
2021/12/15 14:49:37;;;;;;;12.33;6.15;;;;;;;1.30;98.76;100790.43;1691260;83;21570;-36
2021/12/15 14:52:08;;;;;;;15.95;7.85;;;;;;;1.30;99.11;100790.84;1706300;82;21056;-45
